createdAt,value
2023-02-05T00:00:58.427Z,100.00
2023-02-05T00:03:25.810Z,100.00
2023-02-05T00:05:53.096Z,100.00
2023-02-05T00:08:20.286Z,100.00
2023-02-05T00:10:51.512Z,100.00
2023-02-05T00:13:19.007Z,100.00
2023-02-05T00:15:47.630Z,100.00
2023-02-05T00:18:15.073Z,100.00
2023-02-05T00:20:42.258Z,100.00
2023-02-05T00:23:09.452Z,99.33
2023-02-05T00:25:36.648Z,99.03
2023-02-05T00:28:04.094Z,98.61
2023-02-05T00:30:31.529Z,98.47
2023-02-05T00:33:00.189Z,98.41
2023-02-05T00:35:27.378Z,98.48
2023-02-05T00:37:54.574Z,99.05
2023-02-05T00:40:21.872Z,99.97
2023-02-05T00:42:49.079Z,99.83
2023-02-05T00:45:16.300Z,99.37
2023-02-05T00:47:43.959Z,99.27
2023-02-05T00:50:12.535Z,100.00
2023-02-05T00:52:39.836Z,100.00
2023-02-05T00:55:07.720Z,100.00
2023-02-05T00:57:35.030Z,100.00
2023-02-05T01:00:02.437Z,100.00
2023-02-05T01:02:29.738Z,99.91
2023-02-05T01:04:56.967Z,99.90
2023-02-05T01:07:26.768Z,99.08
2023-02-05T01:09:54.032Z,98.54
2023-02-05T01:12:21.389Z,98.53
2023-02-05T01:14:48.756Z,98.81
2023-02-05T01:17:16.700Z,99.30
2023-02-05T01:19:43.915Z,99.66
2023-02-05T01:22:11.378Z,99.98
2023-02-05T01:24:39.986Z,100.00
2023-02-05T01:27:07.165Z,100.00
2023-02-05T01:29:34.382Z,100.00
2023-02-05T01:32:01.643Z,100.00
2023-02-05T01:34:28.850Z,100.00
2023-02-05T01:36:56.078Z,100.00
2023-02-05T01:39:23.307Z,99.89
2023-02-05T01:41:51.894Z,99.63
2023-02-05T01:44:21.058Z,99.71
2023-02-05T01:46:48.882Z,99.26
2023-02-05T01:49:19.773Z,99.03
2023-02-05T01:51:48.537Z,98.77
2023-02-05T01:54:18.675Z,99.16
2023-02-05T01:56:51.969Z,99.17
2023-02-05T01:59:25.311Z,98.56
2023-02-05T02:01:53.645Z,98.56
2023-02-05T02:04:34.138Z,98.88
2023-02-05T02:07:02.678Z,99.58
2023-02-05T02:09:30.173Z,99.78
2023-02-05T02:12:00.128Z,100.00
2023-02-05T02:14:31.941Z,100.00
2023-02-05T02:17:00.464Z,100.00
2023-02-05T02:19:32.217Z,100.00
2023-02-05T02:22:42.822Z,100.00
2023-02-05T02:25:30.975Z,100.00
2023-02-05T02:28:06.305Z,100.00
2023-02-05T02:30:40.582Z,100.00
2023-02-05T02:33:17.275Z,100.00
2023-02-05T02:35:51.658Z,100.00
2023-02-05T02:38:27.519Z,100.00
2023-02-05T02:40:59.789Z,100.00
2023-02-05T02:43:35.278Z,100.00
2023-02-05T02:46:07.310Z,100.00
2023-02-05T02:48:38.026Z,100.00
2023-02-05T02:51:07.389Z,100.00
2023-02-05T02:53:38.181Z,100.00
2023-02-05T02:56:07.926Z,100.00
2023-02-05T02:58:43.004Z,100.00
2023-02-05T03:01:12.682Z,100.00
2023-02-05T03:03:44.915Z,100.00
2023-02-05T03:06:14.154Z,100.00
2023-02-05T03:08:50.321Z,100.00
2023-02-05T03:11:17.969Z,100.00
2023-02-05T03:13:47.663Z,100.00
2023-02-05T03:16:18.003Z,100.00
2023-02-05T03:18:45.763Z,100.00
2023-02-05T03:21:17.330Z,100.00
2023-02-05T03:23:45.067Z,100.00
2023-02-05T03:26:23.412Z,100.00
2023-02-05T03:28:53.442Z,100.00
2023-02-05T03:31:25.460Z,100.00
2023-02-05T03:34:06.147Z,100.00
2023-02-05T03:36:43.075Z,100.00
2023-02-05T03:39:21.651Z,100.00
2023-02-05T03:41:57.407Z,100.00
2023-02-05T03:44:46.621Z,100.00
2023-02-05T03:47:27.616Z,100.00
2023-02-05T03:50:08.768Z,100.00
2023-02-05T03:52:41.030Z,100.00
2023-02-05T03:55:13.857Z,100.00
2023-02-05T03:57:49.263Z,100.00
2023-02-05T04:00:18.938Z,100.00
2023-02-05T04:02:47.893Z,100.00
2023-02-05T04:05:20.790Z,100.00
2023-02-05T04:07:48.955Z,100.00
2023-02-05T04:10:17.110Z,100.00
2023-02-05T04:12:44.709Z,100.00
2023-02-05T04:15:12.352Z,100.00
2023-02-05T04:17:45.809Z,100.00
2023-02-05T04:20:13.194Z,100.00
2023-02-05T04:22:40.601Z,100.00
2023-02-05T04:25:08.733Z,100.00
2023-02-05T04:27:36.155Z,100.00
2023-02-05T04:30:05.908Z,100.00
2023-02-05T04:32:36.779Z,100.00
2023-02-05T04:35:06.068Z,100.00
2023-02-05T04:37:33.345Z,100.00
2023-02-05T04:40:00.955Z,100.00
2023-02-05T04:42:28.264Z,100.00
2023-02-05T04:44:55.471Z,100.00
2023-02-05T04:47:22.682Z,100.00
2023-02-05T04:49:49.875Z,100.00
2023-02-05T04:52:18.451Z,100.00
2023-02-05T04:54:45.761Z,100.00
2023-02-05T04:57:13.070Z,100.00
2023-02-05T04:59:40.450Z,100.00
2023-02-05T05:02:07.675Z,100.00
2023-02-05T05:04:35.708Z,100.00
2023-02-05T05:07:03.131Z,100.00
2023-02-05T05:09:31.694Z,100.00
2023-02-05T05:11:58.949Z,100.00
2023-02-05T05:14:26.239Z,100.00
2023-02-05T05:16:53.435Z,100.00
2023-02-05T05:19:20.616Z,100.00
2023-02-05T05:21:47.817Z,100.00
2023-02-05T05:24:15.021Z,100.00
2023-02-05T05:26:43.631Z,100.00
2023-02-05T05:29:11.453Z,100.00
2023-02-05T05:31:39.187Z,100.00
2023-02-05T05:34:06.457Z,100.00
2023-02-05T05:36:33.844Z,100.00
2023-02-05T05:39:01.120Z,100.00
2023-02-05T05:41:28.846Z,100.00
2023-02-05T05:43:57.501Z,100.00
2023-02-05T05:46:25.911Z,100.00
2023-02-05T05:48:55.837Z,100.00
2023-02-05T05:51:24.284Z,100.00
2023-02-05T05:53:51.946Z,100.00
2023-02-05T05:56:19.321Z,100.00
2023-02-05T05:58:47.212Z,100.00
2023-02-05T06:01:18.179Z,100.00
2023-02-05T06:03:45.382Z,100.00
2023-02-05T06:06:13.042Z,100.00
2023-02-05T06:08:40.495Z,100.00
2023-02-05T06:11:07.761Z,100.00
2023-02-05T06:13:35.104Z,100.00
2023-02-05T06:16:02.758Z,100.00
2023-02-05T06:18:31.308Z,100.00
2023-02-05T06:20:58.584Z,100.00
2023-02-05T06:23:25.800Z,100.00
2023-02-05T06:25:52.996Z,100.00
2023-02-05T06:28:20.203Z,100.00
2023-02-05T06:30:47.541Z,100.00
2023-02-05T06:33:14.973Z,100.00
2023-02-05T06:35:43.513Z,100.00
2023-02-05T06:38:10.773Z,100.00
2023-02-05T06:40:38.152Z,100.00
2023-02-05T06:43:05.351Z,100.00
2023-02-05T06:45:32.971Z,100.00
2023-02-05T06:48:00.433Z,100.00
2023-02-05T06:50:27.655Z,100.00
2023-02-05T06:52:56.287Z,100.00
2023-02-05T06:55:23.538Z,100.00
2023-02-05T06:57:50.747Z,100.00
2023-02-05T07:00:18.349Z,100.00
2023-02-05T07:02:45.602Z,100.00
2023-02-05T07:05:12.964Z,100.00
2023-02-05T07:07:40.221Z,100.00
2023-02-05T07:10:09.375Z,100.00
2023-02-05T07:12:36.571Z,100.00
2023-02-05T07:15:04.119Z,100.00
2023-02-05T07:17:31.478Z,100.00
2023-02-05T07:19:58.660Z,100.00
2023-02-05T07:22:25.896Z,99.55
2023-02-05T07:24:53.170Z,99.58
2023-02-05T07:27:21.934Z,99.92
2023-02-05T07:29:49.177Z,100.00
2023-02-05T07:32:16.399Z,99.75
2023-02-05T07:34:43.570Z,99.47
2023-02-05T07:37:11.192Z,99.88
2023-02-05T07:39:38.456Z,99.96
2023-02-05T07:42:05.780Z,100.00
2023-02-05T07:44:43.471Z,99.93
2023-02-05T07:47:10.685Z,100.00
2023-02-05T07:49:37.912Z,100.00
2023-02-05T07:52:05.395Z,100.00
2023-02-05T07:54:32.959Z,100.00
2023-02-05T07:57:01.645Z,99.88
2023-02-05T07:59:29.048Z,99.98
2023-02-05T08:01:57.654Z,99.61
2023-02-05T08:04:24.978Z,100.00
2023-02-05T08:06:52.351Z,100.00
2023-02-05T08:09:19.586Z,100.00
2023-02-05T08:11:46.791Z,100.00
2023-02-05T08:14:14.300Z,100.00
2023-02-05T08:16:41.542Z,100.00
2023-02-05T08:19:14.225Z,100.00
2023-02-05T08:21:41.758Z,100.00
2023-02-05T08:24:09.227Z,100.00
2023-02-05T08:26:36.447Z,100.00
2023-02-05T08:29:04.185Z,100.00
2023-02-05T08:31:31.433Z,100.00
2023-02-05T08:33:58.767Z,100.00
2023-02-05T08:36:28.003Z,100.00
2023-02-05T08:38:55.485Z,100.00
2023-02-05T08:41:23.109Z,100.00
2023-02-05T08:43:51.457Z,100.00
2023-02-05T08:46:21.972Z,100.00
2023-02-05T08:48:50.175Z,100.00
2023-02-05T08:51:18.876Z,100.00
2023-02-05T08:53:47.536Z,100.00
2023-02-05T08:56:14.924Z,100.00
2023-02-05T08:58:42.356Z,100.00
2023-02-05T09:01:12.171Z,100.00
2023-02-05T09:03:39.966Z,100.00
2023-02-05T09:06:09.159Z,100.00
2023-02-05T09:08:37.200Z,100.00
2023-02-05T09:11:06.898Z,100.00
2023-02-05T09:13:34.534Z,100.00
2023-02-05T09:16:01.814Z,100.00
2023-02-05T09:18:29.068Z,100.00
2023-02-05T09:20:56.456Z,100.00
2023-02-05T09:23:23.877Z,100.00
2023-02-05T09:25:51.284Z,100.00
2023-02-05T09:28:20.005Z,100.00
2023-02-05T09:30:47.277Z,100.00
2023-02-05T09:33:14.623Z,100.00
2023-02-05T09:35:41.927Z,100.00
2023-02-05T09:38:09.751Z,100.00
2023-02-05T09:40:42.949Z,100.00
2023-02-05T09:43:28.425Z,100.00
2023-02-05T09:46:00.656Z,100.00
2023-02-05T09:48:45.806Z,100.00
2023-02-05T09:51:13.272Z,100.00
2023-02-05T09:53:44.195Z,100.00
2023-02-05T09:56:13.689Z,100.00
2023-02-05T09:58:46.314Z,100.00
2023-02-05T10:01:21.019Z,100.00
2023-02-05T10:03:51.795Z,100.00
2023-02-05T10:06:58.126Z,100.00
2023-02-05T10:09:39.622Z,100.00
2023-02-05T10:12:19.372Z,100.00
2023-02-05T10:15:03.618Z,100.00
2023-02-05T10:17:46.115Z,100.00
2023-02-05T10:20:26.559Z,100.00
2023-02-05T10:23:09.913Z,100.00
2023-02-05T10:25:58.862Z,100.00
2023-02-05T10:28:46.244Z,100.00
2023-02-05T10:31:23.070Z,100.00
2023-02-05T10:33:52.370Z,100.00
2023-02-05T10:36:22.155Z,100.00
2023-02-05T10:38:51.699Z,100.00
2023-02-05T10:41:24.420Z,100.00
2023-02-05T10:43:57.951Z,100.00
2023-02-05T10:46:32.578Z,100.00
2023-02-05T10:49:06.648Z,100.00
2023-02-05T10:51:40.520Z,100.00
2023-02-05T10:54:17.703Z,100.00
2023-02-05T10:56:45.474Z,100.00
2023-02-05T10:59:21.494Z,100.00
2023-02-05T11:01:51.248Z,100.00
2023-02-05T11:04:25.125Z,100.00
2023-02-05T11:06:53.068Z,100.00
2023-02-05T11:09:31.330Z,100.00
2023-02-05T11:12:00.973Z,100.00
2023-02-05T11:14:33.548Z,100.00
2023-02-05T11:17:07.597Z,100.00
2023-02-05T11:19:35.112Z,100.00
2023-02-05T11:22:03.826Z,100.00
2023-02-05T11:24:32.834Z,100.00
2023-02-05T11:27:28.579Z,100.00
2023-02-05T11:29:57.650Z,100.00
2023-02-05T11:32:34.210Z,99.42
2023-02-05T11:35:16.056Z,99.20
2023-02-05T11:37:43.450Z,99.48
2023-02-05T11:40:19.863Z,99.94
2023-02-05T11:42:58.288Z,100.00
2023-02-05T11:45:26.672Z,99.96
2023-02-05T11:47:56.049Z,99.97
2023-02-05T11:50:25.263Z,100.00
2023-02-05T11:52:53.810Z,100.00
2023-02-05T11:55:26.577Z,100.00
2023-02-05T11:57:58.845Z,100.00
2023-02-05T12:00:26.871Z,100.00
2023-02-05T12:03:06.360Z,100.00
2023-02-05T12:05:39.183Z,99.73
2023-02-05T12:08:12.355Z,99.84
2023-02-05T12:10:50.391Z,99.93
2023-02-05T12:13:24.454Z,99.91
2023-02-05T12:16:01.938Z,99.89
2023-02-05T12:18:46.725Z,99.44
2023-02-05T12:21:23.751Z,99.12
2023-02-05T12:24:14.922Z,98.35
2023-02-05T12:26:44.382Z,98.46
2023-02-05T12:29:30.959Z,98.20
2023-02-05T12:32:04.755Z,98.25
2023-02-05T12:34:45.637Z,98.50
2023-02-05T12:37:25.726Z,99.39
2023-02-05T12:39:57.708Z,99.63
2023-02-05T12:42:31.680Z,99.72
2023-02-05T12:45:31.162Z,99.88
2023-02-05T12:48:11.608Z,99.62
2023-02-05T12:51:05.886Z,98.85
2023-02-05T12:53:57.355Z,98.67
2023-02-05T12:56:46.314Z,98.09
2023-02-05T12:59:17.256Z,97.91
2023-02-05T13:01:49.985Z,97.99
2023-02-05T13:04:25.031Z,97.42
2023-02-05T13:07:00.297Z,97.84
2023-02-05T13:09:33.331Z,98.05
2023-02-05T13:12:02.974Z,97.39
2023-02-05T13:14:36.570Z,96.64
2023-02-05T13:17:12.338Z,96.80
2023-02-05T13:19:42.201Z,97.40
2023-02-05T13:22:15.987Z,97.62
2023-02-05T13:24:47.884Z,97.72
2023-02-05T13:27:21.843Z,97.40
2023-02-05T13:29:52.891Z,96.92
2023-02-05T13:32:23.313Z,96.72
2023-02-05T13:34:51.472Z,96.68
2023-02-05T13:37:37.578Z,97.00
2023-02-05T13:40:31.501Z,97.08
2023-02-05T13:43:26.157Z,96.63
2023-02-05T13:46:28.665Z,96.19
2023-02-05T13:49:44.289Z,95.91
2023-02-05T13:52:46.722Z,94.93
2023-02-05T13:55:52.695Z,96.58
2023-02-05T13:58:22.721Z,95.67
2023-02-05T14:00:59.415Z,94.93
2023-02-05T14:03:31.980Z,94.66
2023-02-05T14:05:59.446Z,95.13
2023-02-05T14:08:36.850Z,95.81
2023-02-05T14:11:05.624Z,95.53
2023-02-05T14:13:34.016Z,96.15
2023-02-05T14:16:35.174Z,94.69
2023-02-05T14:19:23.531Z,94.23
2023-02-05T14:22:10.894Z,93.05
2023-02-05T14:24:43.585Z,93.50
2023-02-05T14:27:41.725Z,93.33
2023-02-05T14:30:45.373Z,93.25
2023-02-05T14:33:36.297Z,94.02
2023-02-05T14:36:33.100Z,94.59
2023-02-05T14:39:06.840Z,95.59
2023-02-05T14:41:47.799Z,95.98
2023-02-05T14:44:19.701Z,96.41
2023-02-05T14:46:57.314Z,96.93
2023-02-05T14:49:28.606Z,97.25
2023-02-05T14:51:58.069Z,97.99
2023-02-05T14:54:27.872Z,98.55
2023-02-05T14:57:12.834Z,99.35
2023-02-05T14:59:49.001Z,99.23
2023-02-05T15:02:58.812Z,98.37
2023-02-05T15:05:33.523Z,99.40
2023-02-05T15:08:09.989Z,100.00
2023-02-05T15:10:46.557Z,99.73
2023-02-05T15:13:17.300Z,99.21
2023-02-05T15:16:16.064Z,98.93
2023-02-05T15:18:45.656Z,98.62
2023-02-05T15:21:17.178Z,99.15
2023-02-05T15:23:47.211Z,98.79
2023-02-05T15:26:24.113Z,99.81
2023-02-05T15:28:58.679Z,99.11
2023-02-05T15:31:37.268Z,97.52
2023-02-05T15:34:35.847Z,99.51
2023-02-05T15:37:06.669Z,100.00
2023-02-05T15:39:45.742Z,100.00
2023-02-05T15:42:17.707Z,100.00
2023-02-05T15:44:46.575Z,99.92
2023-02-05T15:47:19.158Z,100.00
2023-02-05T15:49:49.303Z,99.43
2023-02-05T15:52:20.222Z,98.40
2023-02-05T15:54:49.852Z,99.26
2023-02-05T15:57:22.037Z,99.94
2023-02-05T15:59:52.773Z,100.00
2023-02-05T16:02:22.172Z,100.00
2023-02-05T16:04:55.644Z,100.00
2023-02-05T16:07:25.807Z,100.00
2023-02-05T16:09:56.499Z,100.00
2023-02-05T16:12:24.568Z,100.00
2023-02-05T16:15:13.433Z,100.00
2023-02-05T16:17:46.459Z,100.00
2023-02-05T16:20:23.243Z,100.00
2023-02-05T16:22:54.009Z,100.00
2023-02-05T16:25:37.179Z,100.00
2023-02-05T16:28:13.384Z,100.00
2023-02-05T17:00:25.162Z,100.00
2023-02-05T17:02:54.483Z,100.00
2023-02-05T17:05:24.474Z,100.00
2023-02-05T17:07:54.997Z,100.00
2023-02-05T17:10:22.813Z,100.00
2023-02-05T17:12:55.611Z,100.00
2023-02-05T17:15:38.074Z,100.00
2023-02-05T17:18:24.597Z,100.00
2023-02-05T17:21:11.899Z,100.00
2023-02-05T17:23:39.075Z,100.00
2023-02-05T17:26:09.334Z,100.00
2023-02-05T17:28:36.542Z,100.00
2023-02-05T17:31:06.669Z,100.00
2023-02-05T17:33:33.964Z,100.00
2023-02-05T17:36:01.223Z,100.00
2023-02-05T17:38:28.502Z,100.00
2023-02-05T17:40:55.786Z,100.00
2023-02-05T17:43:23.081Z,100.00
2023-02-05T17:45:50.382Z,100.00
2023-02-05T17:48:20.476Z,100.00
2023-02-05T17:50:47.753Z,100.00
2023-02-05T17:53:15.164Z,100.00
2023-02-05T17:55:42.363Z,100.00
2023-02-05T17:58:09.584Z,100.00
2023-02-05T18:00:37.150Z,100.00
2023-02-05T18:03:04.622Z,100.00
2023-02-05T18:05:33.277Z,100.00
2023-02-05T18:08:00.553Z,100.00
2023-02-05T18:10:30.976Z,100.00
2023-02-05T18:12:58.363Z,100.00
2023-02-05T18:15:26.296Z,100.00
2023-02-05T18:17:53.693Z,100.00
2023-02-05T18:20:21.063Z,100.00
2023-02-05T18:22:49.755Z,100.00
2023-02-05T18:25:17.148Z,100.00
2023-02-05T18:27:44.935Z,100.00
2023-02-05T18:30:12.965Z,100.00
2023-02-05T18:32:40.552Z,100.00
2023-02-05T18:35:08.540Z,100.00
2023-02-05T18:37:36.801Z,100.00
2023-02-05T18:40:07.001Z,100.00
2023-02-05T18:42:34.794Z,100.00
2023-02-05T18:45:02.684Z,100.00
2023-02-05T18:47:30.095Z,100.00
2023-02-05T18:49:57.970Z,100.00
2023-02-05T18:52:25.389Z,100.00
2023-02-05T18:54:52.953Z,100.00
2023-02-05T18:57:21.721Z,100.00
2023-02-05T18:59:49.038Z,100.00
2023-02-05T19:02:16.385Z,100.00
2023-02-05T19:04:43.905Z,100.00
2023-02-05T19:07:11.323Z,100.00
2023-02-05T19:09:39.623Z,100.00
2023-02-05T19:12:07.230Z,100.00
2023-02-05T19:14:35.890Z,100.00
2023-02-05T19:17:03.072Z,100.00
2023-02-05T19:19:30.329Z,100.00
2023-02-05T19:21:58.446Z,100.00
2023-02-05T19:24:25.939Z,100.00
2023-02-05T19:26:55.407Z,100.00
2023-02-05T19:29:23.295Z,100.00
2023-02-05T19:31:52.078Z,100.00
2023-02-05T19:34:19.817Z,100.00
2023-02-05T19:36:47.055Z,100.00
2023-02-05T19:39:14.930Z,100.00
2023-02-05T19:41:42.375Z,100.00
2023-02-05T19:44:09.654Z,100.00
2023-02-05T19:46:39.065Z,100.00
2023-02-05T19:49:12.813Z,100.00
2023-02-05T19:51:40.921Z,100.00
2023-02-05T19:54:08.273Z,100.00
2023-02-05T19:56:35.676Z,100.00
2023-02-05T19:59:03.275Z,100.00
2023-02-05T20:01:32.534Z,100.00
2023-02-05T20:04:07.866Z,100.00
2023-02-05T20:06:35.967Z,100.00
2023-02-05T20:09:04.778Z,100.00
2023-02-05T20:11:32.142Z,100.00
2023-02-05T20:14:00.493Z,100.00
2023-02-05T20:16:28.601Z,100.00
2023-02-05T20:18:57.630Z,100.00
2023-02-05T20:21:27.836Z,100.00
2023-02-05T20:23:55.938Z,100.00
2023-02-05T20:26:23.870Z,100.00
2023-02-05T20:28:53.250Z,100.00
2023-02-05T20:31:20.855Z,100.00
2023-02-05T20:33:48.144Z,100.00
2023-02-05T20:36:15.405Z,100.00
2023-02-05T20:38:44.084Z,100.00
2023-02-05T20:41:12.861Z,100.00
2023-02-05T20:43:40.411Z,100.00
2023-02-05T20:46:08.812Z,100.00
2023-02-05T20:48:36.117Z,100.00
2023-02-05T20:51:07.988Z,100.00
2023-02-05T20:53:35.673Z,100.00
2023-02-05T20:56:06.427Z,100.00
2023-02-05T20:58:34.252Z,100.00
2023-02-05T21:01:06.048Z,100.00
2023-02-05T21:03:33.126Z,100.00
2023-02-05T21:06:00.409Z,100.00
2023-02-05T21:08:27.781Z,100.00
2023-02-05T21:10:55.205Z,100.00
2023-02-05T21:13:23.859Z,100.00
2023-02-05T21:15:52.773Z,100.00
2023-02-05T21:18:20.384Z,100.00
2023-02-05T21:20:47.908Z,100.00
2023-02-05T21:23:15.300Z,100.00
2023-02-05T21:25:43.142Z,100.00
2023-02-05T21:28:10.599Z,100.00
2023-02-05T21:30:39.628Z,100.00
2023-02-05T21:33:06.982Z,100.00
2023-02-05T21:35:37.442Z,100.00
2023-02-05T21:38:04.766Z,100.00
2023-02-05T21:40:33.294Z,100.00
2023-02-05T21:43:00.936Z,100.00
2023-02-05T21:45:28.343Z,100.00
2023-02-05T21:47:57.412Z,100.00
2023-02-05T21:50:24.752Z,100.00
2023-02-05T21:52:54.248Z,100.00
2023-02-05T21:55:21.542Z,100.00
2023-02-05T21:57:48.689Z,100.00
2023-02-05T22:00:16.884Z,100.00
2023-02-05T22:02:44.241Z,100.00
2023-02-05T22:05:12.987Z,100.00
2023-02-05T22:07:40.367Z,100.00
2023-02-05T22:10:08.166Z,100.00
2023-02-05T22:12:35.459Z,100.00
2023-02-05T22:15:02.681Z,100.00
2023-02-05T22:17:30.173Z,100.00
2023-02-05T22:19:57.452Z,100.00
2023-02-05T22:22:26.092Z,100.00
2023-02-05T22:24:53.262Z,100.00
2023-02-05T22:27:20.815Z,100.00
2023-02-05T22:29:49.054Z,100.00
2023-02-05T22:32:16.454Z,100.00
2023-02-05T22:34:43.877Z,100.00
2023-02-05T22:37:11.079Z,100.00
2023-02-05T22:39:39.774Z,100.00
2023-02-05T22:42:07.183Z,100.00
2023-02-05T22:44:34.583Z,100.00
2023-02-05T22:47:02.024Z,100.00
2023-02-05T22:49:29.270Z,100.00
2023-02-05T22:51:56.471Z,100.00
2023-02-05T22:54:23.868Z,100.00
2023-02-05T22:56:52.407Z,100.00
2023-02-05T22:59:20.181Z,100.00
2023-02-05T23:01:47.482Z,100.00
2023-02-05T23:04:14.670Z,100.00
2023-02-05T23:06:43.016Z,100.00
2023-02-05T23:09:12.804Z,100.00
2023-02-05T23:11:40.967Z,100.00
2023-02-05T23:14:10.692Z,100.00
2023-02-05T23:16:40.979Z,100.00
2023-02-05T23:19:11.762Z,100.00
2023-02-05T23:21:40.511Z,100.00
2023-02-05T23:24:08.767Z,100.00
2023-02-05T23:26:39.757Z,100.00
2023-02-05T23:29:10.476Z,100.00
2023-02-05T23:31:38.584Z,100.00
2023-02-05T23:34:06.382Z,100.00
2023-02-05T23:36:33.957Z,100.00
2023-02-05T23:39:01.945Z,100.00
2023-02-05T23:41:32.340Z,100.00
2023-02-05T23:43:59.820Z,100.00
2023-02-05T23:46:28.624Z,100.00
2023-02-05T23:48:55.946Z,100.00
2023-02-05T23:51:23.520Z,100.00
2023-02-05T23:53:55.242Z,100.00
2023-02-05T23:56:22.679Z,100.00
2023-02-05T23:58:50.393Z,100.00
